This is the latest recevied weather packets stored in our database for station/object VE6HFD-WX. If no packets are shown the sender has not sent any weather packets the latest 1 day(s).
| Time | Temp. | Humidity | Pressure | Rain* | Wind** | Luminosity | Snow |
|---|---|---|---|---|---|---|---|
| 1778033948 | 6.67° C | 36% | 1020.3 hPa | 0 mm | 0.89 m/s, 38° | - | - |
| 1778033648 | 6.67° C | 36% | 1020.2 hPa | 0 mm | 0.89 m/s, 38° | - | - |
| 1778033348 | 6.67° C | 36% | 1020.2 hPa | 0 mm | 1.34 m/s, 38° | - | - |
| 1778033048 | 7.22° C | 34% | 1020.3 hPa | 0 mm | 1.34 m/s, 27° | - | - |
| 1778032748 | 7.22° C | 34% | 1020.3 hPa | 0 mm | 1.34 m/s, 40° | - | - |
| 1778032418 | 7.22° C | 33% | 1020.3 hPa | 0 mm | 1.34 m/s, 31° | - | - |
| 1778032118 | 7.22° C | 33% | 1020.3 hPa | 0 mm | 2.24 m/s, 38° | - | - |
| 1778031788 | 7.22° C | 32% | 1020.3 hPa | 0 mm | 2.24 m/s, 43° | - | - |
| 1778031488 | 7.22° C | 32% | 1020.4 hPa | 0 mm | 2.68 m/s, 33° | - | - |
| 1778031158 | 7.78° C | 32% | 1020.4 hPa | 0 mm | 2.24 m/s, 4° | - | - |
| 1778030828 | 7.22° C | 32% | 1020.5 hPa | 0 mm | 3.58 m/s, 10° | - | - |
| 1778030528 | 7.78° C | 33% | 1020.4 hPa | 0 mm | 2.68 m/s, 36° | - | - |
| 1778030198 | 7.78° C | 33% | 1020.3 hPa | 0 mm | 3.58 m/s, 37° | - | - |
| 1778029868 | 7.78° C | 33% | 1020.4 hPa | 0 mm | 2.24 m/s, 42° | - | - |
| 1778029568 | 7.78° C | 33% | 1020.4 hPa | 0 mm | 3.13 m/s, 30° | - | - |
| 1778029238 | 7.78° C | 34% | 1020.4 hPa | 0 mm | 3.58 m/s, 15° | - | - |
| 1778028908 | 7.78° C | 33% | 1020.5 hPa | 0 mm | 4.02 m/s, 24° | - | - |
| 1778028578 | 7.78° C | 33% | 1020.5 hPa | 0 mm | 2.68 m/s, 39° | - | - |
| 1778028278 | 7.78° C | 34% | 1020.6 hPa | 0 mm | 2.68 m/s, 39° | - | - |
| 1778027948 | 7.78° C | 33% | 1020.6 hPa | 0 mm | 1.34 m/s, 33° | - | - |
| 1778027618 | 7.78° C | 34% | 1020.7 hPa | 0 mm | 3.58 m/s, 26° | - | - |
| 1778027288 | 7.78° C | 34% | 1020.7 hPa | 0 mm | 3.13 m/s, 22° | - | - |
| 1778026958 | 7.78° C | 35% | 1020.7 hPa | 0 mm | 0.45 m/s, 54° | - | - |
| 1778026658 | 7.78° C | 35% | 1020.8 hPa | 0 mm | 2.24 m/s, 35° | - | - |
| 1778026358 | 7.78° C | 34% | 1020.8 hPa | 0 mm | 4.02 m/s, 5° | - | - |
* Rain latest hour (hover to see other rain measurements)
** Current wind speed in m/s (hover to see current wind gust speed)